Time;durP1;ratioP1;P1;durP2;ratioP2;P2;SDS_P1;SDS_P2;PMS_P1;PMS_P2;Temp;Humidity;BMP_temperature;BMP_pressure;BME280_temperature;BME280_humidity;BME280_pressure;Samples;Min_cycle;Max_cycle;Signal;HPM_P1;HPM_P2
2023/03/23 00:02:29;;;;;;;2.75;1.10;;;15.10;98.60;;;;;;4984828;28;20494;-68
2023/03/23 00:04:55;;;;;;;1.23;0.60;;;15.10;98.60;;;;;;4988048;28;20034;-67
2023/03/23 00:07:27;;;;;;;0.47;0.38;;;15.10;98.70;;;;;;4984839;28;20404;-67
2023/03/23 00:09:54;;;;;;;2.50;0.63;;;15.00;98.70;;;;;;4988615;28;20521;-67
2023/03/23 00:12:32;;;;;;;0.88;0.60;;;15.00;99.10;;;;;;4951343;28;20042;-68
2023/03/23 00:15:04;;;;;;;1.40;0.65;;;14.90;99.20;;;;;;4971778;28;20398;-67
2023/03/23 00:17:34;;;;;;;1.58;0.70;;;14.80;99.30;;;;;;4967598;28;20030;-68
2023/03/23 00:20:04;;;;;;;4.60;0.82;;;14.70;99.80;;;;;;4971390;28;20046;-68
2023/03/23 00:22:29;;;;;;;1.63;0.68;;;14.70;99.90;;;;;;4967439;28;20027;-67
2023/03/23 00:24:56;;;;;;;1.42;0.70;;;14.60;99.90;;;;;;4988009;28;20038;-67
2023/03/23 00:27:23;;;;;;;1.67;0.73;;;14.60;99.90;;;;;;4984099;28;20030;-68
2023/03/23 00:29:52;;;;;;;1.67;0.90;;;14.60;99.90;;;;;;4970902;28;20034;-68
2023/03/23 00:32:20;;;;;;;0.98;0.65;;;14.60;99.90;;;;;;4984286;28;20041;-67
2023/03/23 00:34:48;;;;;;;1.38;0.60;;;14.60;99.90;;;;;;4987875;28;20062;-67
2023/03/23 00:37:18;;;;;;;1.98;0.60;;;14.60;99.90;;;;;;4984075;28;20642;-68
2023/03/23 00:39:45;;;;;;;1.02;0.52;;;14.70;99.90;;;;;;4986540;28;20037;-68
2023/03/23 00:42:16;;;;;;;2.63;0.60;;;14.70;99.90;;;;;;4983881;28;20050;-67
2023/03/23 00:44:43;;;;;;;2.80;0.75;;;14.80;99.50;;;;;;4987714;28;20027;-68
2023/03/23 00:47:11;;;;;;;0.90;0.60;;;14.90;99.10;;;;;;4982919;28;20037;-68
2023/03/23 00:49:38;;;;;;;1.77;0.52;;;14.90;98.90;;;;;;4954122;28;20391;-68
2023/03/23 00:52:05;;;;;;;1.15;0.75;;;14.90;98.80;;;;;;4983791;28;20707;-68
2023/03/23 00:54:33;;;;;;;3.55;0.63;;;15.00;98.70;;;;;;4970235;28;20654;-67
2023/03/23 00:57:00;;;;;;;1.33;0.60;;;15.00;98.60;;;;;;4983694;28;20474;-67
2023/03/23 00:59:25;;;;;;;0.68;0.60;;;15.00;98.50;;;;;;4987359;28;20113;-68
2023/03/23 01:01:51;;;;;;;0.50;0.50;;;15.10;98.80;;;;;;4983717;28;20109;-68
2023/03/23 01:04:18;;;;;;;1.38;0.55;;;15.00;99.10;;;;;;4989120;28;20076;-67
2023/03/23 01:06:44;;;;;;;2.25;0.90;;;14.80;99.40;;;;;;4982007;28;20031;-67
2023/03/23 01:09:16;;;;;;;2.95;1.15;;;14.80;99.50;;;;;;4973833;28;20022;-67
2023/03/23 01:11:43;;;;;;;1.38;0.80;;;14.80;99.60;;;;;;4964055;28;20031;-67
2023/03/23 01:14:11;;;;;;;1.77;0.70;;;14.50;99.90;;;;;;4991186;28;20027;-67
2023/03/23 01:16:37;;;;;;;0.93;0.45;;;14.30;99.90;;;;;;4954577;28;20053;-67
2023/03/23 01:19:02;;;;;;;1.08;0.65;;;14.20;99.90;;;;;;4991755;28;20034;-67
2023/03/23 01:21:29;;;;;;;1.73;0.70;;;14.10;99.90;;;;;;4979202;28;20042;-67
2023/03/23 01:23:55;;;;;;;1.42;0.85;;;14.10;99.90;;;;;;4991116;28;20060;-67
2023/03/23 01:26:24;;;;;;;0.98;0.52;;;14.00;99.90;;;;;;4979568;28;20030;-67
2023/03/23 01:28:50;;;;;;;1.92;0.80;;;14.00;99.90;;;;;;4935698;29;20404;-67
2023/03/23 01:31:20;;;;;;;1.58;0.93;;;14.00;99.90;;;;;;4975589;28;20111;-67
2023/03/23 01:33:48;;;;;;;2.30;0.90;;;14.00;99.90;;;;;;4973847;28;20085;-67
2023/03/23 01:36:18;;;;;;;1.35;0.88;;;13.90;99.90;;;;;;4963519;28;20035;-67
2023/03/23 01:38:46;;;;;;;1.75;0.70;;;13.90;99.90;;;;;;4990845;28;20116;-67
2023/03/23 01:41:14;;;;;;;1.67;0.85;;;13.90;99.90;;;;;;4980836;28;20490;-67
2023/03/23 01:44:06;;;;;;;1.17;0.75;;;13.90;99.90;;;;;;4989780;28;20073;-68
2023/03/23 01:46:33;;;;;;;;;;;13.90;99.90;;;;;;4962323;28;20871;-67
2023/03/23 01:49:13;;;;;;;0.73;0.40;;;14.00;99.90;;;;;;4991299;28;20000;-68
2023/03/23 01:51:52;;;;;;;1.52;0.68;;;14.10;99.90;;;;;;4964598;28;20037;-68
2023/03/23 01:54:21;;;;;;;1.25;0.60;;;14.10;99.90;;;;;;4972075;28;20041;-67
2023/03/23 01:56:54;;;;;;;0.50;0.40;;;14.20;99.90;;;;;;4965413;28;20081;-67
2023/03/23 01:59:22;;;;;;;0.30;0.25;;;14.40;99.90;;;;;;4971426;28;20038;-67
2023/03/23 02:01:48;;;;;;;3.53;0.73;;;14.50;99.90;;;;;;4965242;28;20117;-66
2023/03/23 02:04:17;;;;;;;1.88;0.85;;;14.50;99.90;;;;;;4968654;28;20031;-67
2023/03/23 02:06:44;;;;;;;1.45;0.80;;;14.50;99.90;;;;;;4962073;28;20038;-67
2023/03/23 02:09:13;;;;;;;0.70;0.35;;;14.60;99.90;;;;;;4969469;28;20023;-67
2023/03/23 02:11:39;;;;;;;1.42;0.77;;;14.50;99.90;;;;;;4955206;28;20036;-67
2023/03/23 02:14:05;;;;;;;1.27;0.60;;;14.50;99.90;;;;;;4975214;28;20026;-67
2023/03/23 02:16:53;;;;;;;2.85;0.90;;;14.40;99.90;;;;;;4966108;28;20390;-67
2023/03/23 02:19:26;;;;;;;1.83;1.00;;;14.50;99.90;;;;;;4992599;28;20482;-68
2023/03/23 02:22:00;;;;;;;1.05;0.63;;;14.40;99.90;;;;;;4975332;28;20401;-67
2023/03/23 02:24:50;;;;;;;2.92;0.82;;;14.50;99.90;;;;;;4967154;28;20027;-67
2023/03/23 02:27:51;;;;;;;0.25;0.25;;;14.40;99.90;;;;;;4986665;28;20030;-66
2023/03/23 02:30:54;;;;;;;1.38;0.50;;;14.50;99.90;;;;;;4990420;28;20537;-67
2023/03/23 02:33:49;;;;;;;1.15;0.50;;;14.50;99.90;;;;;;4989215;28;20136;-67
2023/03/23 02:36:46;;;;;;;1.13;0.63;;;14.40;99.90;;;;;;4966177;28;20023;-67
2023/03/23 02:39:39;;;;;;;1.90;0.98;;;14.30;99.90;;;;;;4954579;28;20042;-68
2023/03/23 02:42:09;;;;;;;1.42;0.75;;;14.30;99.90;;;;;;4974472;28;20037;-68
2023/03/23 02:44:40;;;;;;;0.55;0.35;;;14.20;99.90;;;;;;4990153;28;20019;-68
2023/03/23 02:47:14;;;;;;;4.10;0.68;;;14.20;99.90;;;;;;4969058;28;20113;-67
2023/03/23 02:49:43;;;;;;;7.53;0.80;;;14.20;99.90;;;;;;4972798;28;20027;-68
2023/03/23 02:52:19;;;;;;;1.08;0.60;;;14.10;99.90;;;;;;4969015;28;20114;-67
2023/03/23 02:54:48;;;;;;;0.70;0.40;;;14.00;99.90;;;;;;4972918;28;20034;-67
2023/03/23 02:57:13;;;;;;;2.35;0.80;;;14.00;99.90;;;;;;4968708;28;20034;-67
2023/03/23 02:59:40;;;;;;;1.23;0.47;;;14.00;99.90;;;;;;4972426;28;20027;-68
2023/03/23 03:02:18;;;;;;;2.33;1.10;;;13.90;99.90;;;;;;4968437;28;20379;-68
2023/03/23 03:05:18;;;;;;;1.17;0.60;;;13.90;99.90;;;;;;4973010;28;20024;-68
2023/03/23 03:08:19;;;;;;;0.70;0.52;;;14.00;99.90;;;;;;4968375;28;20600;-68
2023/03/23 03:11:05;;;;;;;1.05;0.65;;;14.00;99.90;;;;;;4985172;28;20053;-68
2023/03/23 03:13:58;;;;;;;1.17;0.63;;;14.00;99.90;;;;;;4976675;28;20434;-68
2023/03/23 03:16:40;;;;;;;7.03;0.93;;;14.00;99.90;;;;;;4982860;28;20088;-68
2023/03/23 03:19:20;;;;;;;1.13;0.68;;;14.00;99.90;;;;;;4973020;28;20522;-68
2023/03/23 03:21:50;;;;;;;1.98;0.70;;;14.00;99.90;;;;;;4984382;28;20039;-67
2023/03/23 03:24:20;;;;;;;5.10;0.55;;;13.90;99.90;;;;;;4973897;28;20022;-67
2023/03/23 03:26:50;;;;;;;0.93;0.60;;;13.90;99.90;;;;;;4983326;28;20037;-68
2023/03/23 03:29:24;;;;;;;1.98;0.90;;;14.00;99.90;;;;;;4974623;28;20398;-67
2023/03/23 03:31:55;;;;;;;1.23;0.60;;;14.00;99.90;;;;;;4957167;28;20034;-70
2023/03/23 03:34:21;;;;;;;3.10;0.50;;;14.10;99.90;;;;;;4971560;28;20031;-67
2023/03/23 03:36:50;;;;;;;2.08;0.68;;;14.10;99.90;;;;;;4967584;28;20573;-68
2023/03/23 03:39:17;;;;;;;0.70;0.63;;;14.10;99.90;;;;;;4991313;28;20422;-67
2023/03/23 03:41:43;;;;;;;1.48;0.52;;;14.10;99.90;;;;;;4965919;28;20035;-68
2023/03/23 03:44:10;;;;;;;1.83;0.60;;;14.20;99.90;;;;;;4975337;28;20444;-67
2023/03/23 03:46:36;;;;;;;1.38;0.93;;;14.30;99.90;;;;;;4970710;28;20085;-67
2023/03/23 03:49:06;;;;;;;2.97;0.88;;;14.40;99.90;;;;;;4975843;28;20026;-68
2023/03/23 03:51:34;;;;;;;4.80;0.50;;;14.40;99.90;;;;;;4980578;28;20102;-67
2023/03/23 03:54:00;;;;;;;2.05;0.60;;;14.50;99.90;;;;;;4992819;28;20549;-67
2023/03/23 03:56:26;;;;;;;2.13;0.55;;;14.50;99.90;;;;;;4963453;28;20038;-68
2023/03/23 03:58:53;;;;;;;0.95;0.52;;;14.60;99.90;;;;;;4992905;28;20149;-67
2023/03/23 04:01:23;;;;;;;1.13;0.52;;;14.60;99.90;;;;;;4964036;28;20030;-67
2023/03/23 04:03:50;;;;;;;2.80;0.75;;;14.60;99.90;;;;;;4960160;28;20022;-68
2023/03/23 04:06:17;;;;;;;0.60;0.50;;;14.70;99.90;;;;;;4970267;28;20045;-68
2023/03/23 04:08:44;;;;;;;4.22;0.65;;;14.70;99.90;;;;;;4955171;28;20401;-67
2023/03/23 04:11:13;;;;;;;1.65;0.70;;;14.70;99.90;;;;;;4984996;28;20080;-67
2023/03/23 04:13:40;;;;;;;1.63;0.68;;;14.70;99.90;;;;;;4957208;28;20506;-68
2023/03/23 04:16:07;;;;;;;2.17;0.77;;;14.80;99.90;;;;;;4977986;28;20109;-68
2023/03/23 04:18:35;;;;;;;0.80;0.70;;;14.80;99.90;;;;;;4975151;28;20042;-67
2023/03/23 04:21:03;;;;;;;1.58;0.70;;;14.80;99.90;;;;;;4977411;28;20039;-68
2023/03/23 04:23:33;;;;;;;2.17;0.70;;;14.80;99.90;;;;;;4989015;28;20518;-67
2023/03/23 04:25:59;;;;;;;1.75;0.88;;;14.80;99.90;;;;;;4950856;28;20041;-67
2023/03/23 04:28:26;;;;;;;1.52;0.70;;;14.80;99.90;;;;;;4988560;28;20037;-67
2023/03/23 04:30:55;;;;;;;1.00;0.55;;;14.70;99.90;;;;;;4967246;28;20069;-67
2023/03/23 04:33:26;;;;;;;1.00;0.60;;;14.70;99.90;;;;;;4974521;28;20105;-68
2023/03/23 04:35:53;;;;;;;;;;;14.60;99.90;;;;;;4984248;28;20038;-67
2023/03/23 04:38:23;;;;;;;1.52;0.82;;;14.70;99.90;;;;;;4969264;28;20393;-67
2023/03/23 04:40:52;;;;;;;1.42;0.75;;;14.60;99.90;;;;;;4970131;28;20035;-68
2023/03/23 04:43:24;;;;;;;0.95;0.57;;;14.60;99.90;;;;;;4959187;28;20423;-68
2023/03/23 04:45:59;;;;;;;1.10;0.43;;;14.50;99.90;;;;;;4970616;28;20030;-68
2023/03/23 04:48:29;;;;;;;3.42;0.90;;;14.50;99.90;;;;;;4958509;28;20811;-68
2023/03/23 04:50:55;;;;;;;0.65;0.50;;;14.50;99.90;;;;;;4978690;28;20066;-68
2023/03/23 04:53:21;;;;;;;1.00;0.73;;;14.40;99.90;;;;;;4974217;28;20089;-68
2023/03/23 04:55:48;;;;;;;2.22;0.73;;;14.30;99.90;;;;;;4967096;28;20085;-68
2023/03/23 04:58:16;;;;;;;1.60;0.85;;;14.30;99.90;;;;;;4967514;28;20027;-68
2023/03/23 05:00:49;;;;;;;1.02;0.80;;;14.20;99.90;;;;;;4966096;28;20053;-68
2023/03/23 05:03:19;;;;;;;1.40;0.70;;;14.10;99.90;;;;;;4968747;28;20027;-68
2023/03/23 05:05:53;;;;;;;2.10;0.77;;;14.10;99.90;;;;;;4983329;28;20026;-69
2023/03/23 05:08:24;;;;;;;1.08;0.65;;;14.10;99.90;;;;;;4983888;28;20505;-69
2023/03/23 05:11:00;;;;;;;1.15;0.60;;;14.00;99.90;;;;;;4977257;28;20034;-69
2023/03/23 05:13:29;;;;;;;1.90;0.90;;;14.00;99.90;;;;;;4983557;28;20124;-68
2023/03/23 05:15:55;;;;;;;2.70;0.65;;;14.00;99.90;;;;;;4963057;28;20038;-69
2023/03/23 05:18:21;;;;;;;1.67;0.75;;;14.00;99.90;;;;;;4976067;28;20410;-69
2023/03/23 05:20:48;;;;;;;1.85;0.70;;;14.10;99.90;;;;;;4982953;28;20390;-69
2023/03/23 05:23:14;;;;;;;0.80;0.73;;;14.10;99.90;;;;;;4967231;28;20025;-69
2023/03/23 05:25:41;;;;;;;3.05;0.82;;;14.10;99.90;;;;;;4965813;28;20022;-68
2023/03/23 05:28:11;;;;;;;1.73;0.98;;;14.10;99.90;;;;;;4967801;28;20478;-68
2023/03/23 05:30:38;;;;;;;3.38;1.17;;;14.20;99.90;;;;;;4965671;28;20026;-69
2023/03/23 05:33:04;;;;;;;1.27;0.57;;;14.20;99.90;;;;;;4984871;28;20092;-68
2023/03/23 05:35:30;;;;;;;1.67;1.00;;;14.20;99.90;;;;;;4955207;28;20040;-67
2023/03/23 05:37:57;;;;;;;2.33;0.90;;;14.20;99.90;;;;;;4943609;28;20035;-68
2023/03/23 05:40:25;;;;;;;1.40;0.88;;;14.20;99.90;;;;;;4937791;28;20678;-68
2023/03/23 05:42:52;;;;;;;2.25;1.00;;;14.20;99.90;;;;;;4967126;28;20121;-68
2023/03/23 05:45:18;;;;;;;2.15;0.75;;;14.20;99.90;;;;;;4966004;28;20391;-69
2023/03/23 05:47:45;;;;;;;1.67;0.75;;;14.20;99.90;;;;;;4971610;28;20031;-70
2023/03/23 05:50:12;;;;;;;1.65;0.93;;;14.20;99.90;;;;;;4961319;28;20025;-69
2023/03/23 05:52:39;;;;;;;3.35;1.05;;;14.30;99.90;;;;;;4965414;28;20109;-70
2023/03/23 05:55:07;;;;;;;2.28;0.73;;;14.30;99.90;;;;;;4971462;28;20462;-70
2023/03/23 05:57:33;;;;;;;9.75;1.02;;;14.30;99.90;;;;;;4971738;28;20078;-71
2023/03/23 05:59:59;;;;;;;0.82;0.45;;;14.20;99.90;;;;;;4968556;28;20030;-71
2023/03/23 06:02:29;;;;;;;3.42;1.67;;;14.20;99.90;;;;;;4972246;28;20037;-68
2023/03/23 06:04:57;;;;;;;1.13;0.50;;;14.20;99.90;;;;;;4986451;28;20037;-68
2023/03/23 06:07:25;;;;;;;1.40;0.60;;;14.20;99.90;;;;;;4989003;28;20027;-68
2023/03/23 06:09:52;;;;;;;2.33;0.93;;;14.20;99.90;;;;;;4975200;28;20034;-68
2023/03/23 06:12:20;;;;;;;0.63;0.52;;;14.20;99.90;;;;;;4958038;28;20043;-70
2023/03/23 06:14:47;;;;;;;1.98;0.60;;;14.20;99.90;;;;;;4966077;28;20049;-69
2023/03/23 06:17:15;;;;;;;1.70;0.80;;;14.20;99.90;;;;;;4988751;28;20038;-69
2023/03/23 06:19:41;;;;;;;1.02;0.73;;;14.20;99.90;;;;;;4980672;28;20030;-69
2023/03/23 06:22:07;;;;;;;1.63;0.80;;;14.20;99.90;;;;;;4957721;28;20035;-68
2023/03/23 06:24:34;;;;;;;4.38;0.88;;;14.20;99.90;;;;;;4982050;28;20031;-69
2023/03/23 06:27:00;;;;;;;1.30;0.90;;;14.20;99.90;;;;;;4976188;28;20068;-68
2023/03/23 06:29:25;;;;;;;3.05;0.85;;;14.20;99.90;;;;;;4979778;28;20081;-69
2023/03/23 06:32:00;;;;;;;1.55;0.77;;;14.20;99.90;;;;;;4994739;28;20034;-69
2023/03/23 06:34:26;;;;;;;6.93;1.55;;;14.20;99.90;;;;;;4962693;28;20042;-70
2023/03/23 06:36:52;;;;;;;0.73;0.55;;;14.20;99.90;;;;;;4976622;28;20053;-73
2023/03/23 06:39:18;;;;;;;5.60;0.75;;;14.20;99.90;;;;;;4980025;28;20031;-69
2023/03/23 06:41:43;;;;;;;0.95;0.75;;;14.30;99.90;;;;;;4992815;28;20034;-68
2023/03/23 06:44:12;;;;;;;2.60;0.95;;;14.40;99.90;;;;;;4981292;28;20526;-69
2023/03/23 06:46:41;;;;;;;0.73;0.43;;;14.40;99.90;;;;;;4992123;28;20030;-69
2023/03/23 06:49:07;;;;;;;1.13;0.70;;;14.40;99.90;;;;;;4964210;28;20030;-68
2023/03/23 06:51:33;;;;;;;1.00;0.60;;;14.40;99.90;;;;;;4944030;28;20027;-70
2023/03/23 06:53:59;;;;;;;1.27;0.55;;;14.40;99.90;;;;;;4975364;28;20047;-70
2023/03/23 06:56:25;;;;;;;2.25;0.70;;;14.40;99.90;;;;;;4989677;28;20042;-71
2023/03/23 06:58:51;;;;;;;1.27;0.65;;;14.40;99.90;;;;;;4978025;28;20058;-71
2023/03/23 07:01:17;;;;;;;1.83;0.88;;;14.40;99.90;;;;;;4979550;28;20554;-71
2023/03/23 07:03:43;;;;;;;2.15;1.05;;;14.40;99.90;;;;;;4960768;28;20034;-70
2023/03/23 07:06:10;;;;;;;2.00;0.70;;;14.50;99.90;;;;;;4975577;28;20030;-70
2023/03/23 07:08:36;;;;;;;2.53;1.33;;;14.50;99.90;;;;;;4968179;28;20026;-71
2023/03/23 07:11:03;;;;;;;11.90;0.85;;;14.60;99.90;;;;;;4959679;28;20041;-70
2023/03/23 07:13:29;;;;;;;2.30;0.65;;;14.40;99.90;;;;;;4953843;28;20039;-67
2023/03/23 07:15:55;;;;;;;0.50;0.40;;;14.20;99.90;;;;;;4942898;28;20034;-66
2023/03/23 07:18:21;;;;;;;1.67;0.70;;;14.30;99.90;;;;;;4974154;28;20094;-68
2023/03/23 07:20:51;;;;;;;2.15;0.60;;;14.40;99.90;;;;;;4982584;28;20026;-68
2023/03/23 07:23:19;;;;;;;0.63;0.50;;;14.30;99.90;;;;;;4964286;28;20030;-67
2023/03/23 07:25:46;;;;;;;3.13;0.85;;;14.30;99.90;;;;;;4967662;28;20085;-67
2023/03/23 07:28:12;;;;;;;3.20;0.73;;;14.40;99.90;;;;;;4977733;28;20096;-67
2023/03/23 07:30:38;;;;;;;3.17;0.73;;;14.40;99.90;;;;;;4952426;28;20039;-67
2023/03/23 07:33:06;;;;;;;6.78;0.52;;;14.40;99.90;;;;;;4975659;28;20448;-67
2023/03/23 07:35:32;;;;;;;2.25;0.70;;;14.30;99.90;;;;;;4963816;28;20039;-67
2023/03/23 07:37:59;;;;;;;2.45;0.60;;;14.30;99.90;;;;;;4975145;28;20030;-67
2023/03/23 07:40:26;;;;;;;5.05;0.70;;;14.30;99.90;;;;;;4962380;28;20090;-67
2023/03/23 07:42:55;;;;;;;4.32;0.40;;;14.20;99.90;;;;;;4978178;28;20109;-66
2023/03/23 07:45:21;;;;;;;2.58;0.50;;;14.10;99.90;;;;;;4972990;28;20031;-67
2023/03/23 07:47:48;;;;;;;0.68;0.32;;;14.00;99.90;;;;;;4959039;28;20040;-67
2023/03/23 07:50:13;;;;;;;0.75;0.47;;;14.00;99.90;;;;;;4968605;28;20113;-67
2023/03/23 07:52:41;;;;;;;0.50;0.40;;;14.00;99.90;;;;;;4962030;28;20110;-67
2023/03/23 07:55:17;;;;;;;0.77;0.40;;;13.90;99.90;;;;;;4966186;28;20035;-67
2023/03/23 07:57:48;;;;;;;1.80;0.77;;;13.90;99.90;;;;;;4977984;28;20039;-67
2023/03/23 08:00:19;;;;;;;1.10;0.82;;;13.80;99.90;;;;;;4971665;28;20030;-68
2023/03/23 08:02:55;;;;;;;1.65;1.05;;;13.80;99.90;;;;;;4966798;28;20038;-68
2023/03/23 08:05:21;;;;;;;0.28;0.28;;;13.80;99.90;;;;;;4952104;28;20027;-68
2023/03/23 08:07:49;;;;;;;1.85;0.55;;;13.80;99.90;;;;;;4978658;28;20089;-67
2023/03/23 08:10:17;;;;;;;1.95;0.50;;;13.80;99.90;;;;;;4957268;28;20113;-68
2023/03/23 08:12:45;;;;;;;0.68;0.43;;;13.80;99.90;;;;;;4959346;28;20037;-68
2023/03/23 08:15:14;;;;;;;0.70;0.57;;;13.80;99.90;;;;;;4966645;28;20034;-67
2023/03/23 08:17:41;;;;;;;0.40;0.40;;;13.70;99.90;;;;;;4968418;28;20098;-69
2023/03/23 08:20:12;;;;;;;4.57;0.38;;;13.70;99.90;;;;;;4966547;28;20046;-69
2023/03/23 08:22:40;;;;;;;0.30;0.30;;;13.60;99.90;;;;;;4970973;28;20042;-69
2023/03/23 08:25:09;;;;;;;0.38;0.30;;;13.80;99.90;;;;;;4966290;28;20105;-68
2023/03/23 08:27:36;;;;;;;3.90;0.55;;;13.80;99.90;;;;;;4985367;28;20399;-71
2023/03/23 08:30:07;;;;;;;2.03;0.57;;;13.70;99.90;;;;;;4966722;28;20037;-69
2023/03/23 08:32:32;;;;;;;1.13;0.60;;;13.70;99.90;;;;;;4985585;28;20435;-68
2023/03/23 08:34:59;;;;;;;0.73;0.40;;;13.70;99.90;;;;;;4983320;28;20089;-69
2023/03/23 08:37:25;;;;;;;0.30;0.20;;;13.60;99.90;;;;;;4985365;28;20038;-69
2023/03/23 08:39:53;;;;;;;1.48;0.50;;;13.70;99.90;;;;;;4983216;28;20096;-67
2023/03/23 08:42:19;;;;;;;0.90;0.40;;;13.70;99.90;;;;;;4948777;28;20489;-71
2023/03/23 08:44:45;;;;;;;1.05;0.47;;;13.70;99.90;;;;;;4981647;28;20110;-68
2023/03/23 08:47:11;;;;;;;0.70;0.60;;;13.70;99.90;;;;;;4988935;28;20501;-73
2023/03/23 08:49:36;;;;;;;0.85;0.55;;;13.70;99.90;;;;;;4964176;28;20455;-69
2023/03/23 08:52:20;;;;;;;0.77;0.32;;;13.70;99.90;;;;;;4975371;28;20043;-72
2023/03/23 08:54:47;;;;;;;0.73;0.50;;;13.60;99.90;;;;;;4964626;28;20026;-69
2023/03/23 08:57:14;;;;;;;1.13;0.73;;;13.60;99.90;;;;;;4970976;28;20434;-67
2023/03/23 08:59:41;;;;;;;0.35;0.25;;;13.40;99.90;;;;;;4964640;28;20027;-69
2023/03/23 09:02:11;;;;;;;0.55;0.40;;;13.40;99.90;;;;;;4989781;28;20066;-67
2023/03/23 09:04:42;;;;;;;0.75;0.50;;;13.30;99.90;;;;;;4978384;28;20089;-65
2023/03/23 09:07:14;;;;;;;1.95;0.90;;;13.30;99.90;;;;;;4989805;28;20026;-67
2023/03/23 09:09:40;;;;;;;1.02;0.60;;;13.40;99.90;;;;;;4962671;28;20439;-68
2023/03/23 09:12:08;;;;;;;0.40;0.32;;;13.40;99.90;;;;;;4972609;23;20410;-67
2023/03/23 09:14:35;;;;;;;1.48;0.70;;;13.50;99.90;;;;;;4981094;28;20030;-67
2023/03/23 09:17:02;;;;;;;0.75;0.47;;;13.60;99.90;;;;;;4982918;28;20026;-68
2023/03/23 09:19:33;;;;;;;2.13;0.65;;;13.70;99.90;;;;;;4981492;28;20023;-67
2023/03/23 09:22:00;;;;;;;1.10;0.70;;;13.80;99.90;;;;;;4979418;28;20038;-68
2023/03/23 09:24:26;;;;;;;1.50;0.40;;;13.90;99.90;;;;;;4982614;28;20026;-68
2023/03/23 09:26:52;;;;;;;0.77;0.43;;;13.90;99.90;;;;;;4982805;28;20479;-67
2023/03/23 09:29:18;;;;;;;0.95;0.47;;;14.00;99.90;;;;;;4982827;28;20042;-68
2023/03/23 09:31:46;;;;;;;1.50;0.40;;;14.10;99.90;;;;;;4958274;28;20035;-67
2023/03/23 09:34:15;;;;;;;1.77;0.47;;;14.10;99.90;;;;;;4976932;28;20025;-68
2023/03/23 09:36:44;;;;;;;1.27;0.55;;;14.30;99.90;;;;;;4943570;28;20030;-69
2023/03/23 09:39:11;;;;;;;0.52;0.40;;;14.30;99.90;;;;;;4984622;28;20474;-67
2023/03/23 09:41:54;;;;;;;4.18;0.52;;;14.40;99.90;;;;;;4981536;28;20039;-76
2023/03/23 09:44:55;;;;;;;0.35;0.32;;;14.30;99.90;;;;;;4982002;28;20089;-66
2023/03/23 09:48:21;;;;;;;5.55;1.15;;;14.30;99.90;;;;;;4981494;28;20419;-68
2023/03/23 09:50:55;;;;;;;1.83;0.93;;;14.10;99.90;;;;;;4981560;28;20066;-68
2023/03/23 09:53:41;;;;;;;1.33;0.70;;;14.00;99.90;;;;;;4958500;28;20030;-68
2023/03/23 09:56:15;;;;;;;1.30;0.68;;;14.00;99.90;;;;;;4950281;29;20395;-68
2023/03/23 09:59:02;;;;;;;0.52;0.35;;;14.00;99.90;;;;;;4980180;28;20451;-68
2023/03/23 10:01:32;;;;;;;0.77;0.50;;;14.00;99.90;;;;;;4982044;28;20074;-83
2023/03/23 10:04:51;;;;;;;1.10;0.52;;;14.10;99.90;;;;;;4982082;28;20022;-67
2023/03/23 10:07:21;;;;;;;0.45;0.28;;;14.20;99.90;;;;;;4975647;28;20129;-65
2023/03/23 10:09:54;;;;;;;2.85;0.47;;;14.20;99.90;;;;;;4982540;28;20080;-65
2023/03/23 10:12:45;;;;;;;6.10;0.50;;;14.20;99.90;;;;;;4954378;28;20507;-69
2023/03/23 10:15:16;;;;;;;1.20;0.50;;;14.20;99.90;;;;;;4978390;28;20489;-67
2023/03/23 10:18:10;;;;;;;1.58;0.55;;;14.10;99.90;;;;;;4955822;28;20121;-67
2023/03/23 10:20:54;;;;;;;0.40;0.35;;;14.20;99.90;;;;;;4983760;28;20043;-71
2023/03/23 10:23:35;;;;;;;1.65;0.55;;;14.20;99.90;;;;;;4978619;28;20549;-67
2023/03/23 10:26:34;;;;;;;0.73;0.40;;;14.20;99.90;;;;;;4970301;28;20041;-67
2023/03/23 10:29:36;;;;;;;1.00;0.60;;;14.20;99.90;;;;;;4972617;28;20057;-68
2023/03/23 10:32:49;;;;;;;1.00;0.43;;;14.20;99.90;;;;;;4933860;28;20121;-68
2023/03/23 10:35:25;;;;;;;1.40;0.60;;;14.30;99.90;;;;;;4965555;28;20053;-80
2023/03/23 10:38:03;;;;;;;0.98;0.70;;;14.40;99.90;;;;;;4973983;28;20054;-67
2023/03/23 10:40:33;;;;;;;0.75;0.52;;;14.70;99.90;;;;;;4990251;28;20439;-69
2023/03/23 10:42:59;;;;;;;0.85;0.57;;;14.70;99.90;;;;;;4981764;28;20574;-68
2023/03/23 10:45:32;;;;;;;1.40;0.50;;;14.90;99.90;;;;;;4990360;28;20080;-67
2023/03/23 10:48:32;;;;;;;0.68;0.38;;;14.90;99.90;;;;;;4981227;28;20482;-68
2023/03/23 10:51:02;;;;;;;0.85;0.32;;;15.10;99.90;;;;;;4956785;28;20077;-68
2023/03/23 10:53:45;;;;;;;1.05;0.40;;;15.30;99.90;;;;;;4982282;28;20093;-67
2023/03/23 10:56:36;;;;;;;0.80;0.40;;;15.30;99.90;;;;;;4965307;28;20058;-69
2023/03/23 10:59:20;;;;;;;0.17;0.17;;;15.10;99.90;;;;;;4965647;28;20031;-68
2023/03/23 11:01:53;;;;;;;2.05;0.40;;;15.10;99.90;;;;;;4952634;28;20041;-67
2023/03/23 11:04:19;;;;;;;0.82;0.50;;;14.80;99.90;;;;;;4967684;28;20133;-69
2023/03/23 11:06:57;;;;;;;1.65;0.60;;;14.60;99.90;;;;;;4978393;28;20113;-70
2023/03/23 11:09:50;;;;;;;2.83;0.80;;;14.50;99.90;;;;;;4969541;28;20030;-69
2023/03/23 11:12:20;;;;;;;1.08;0.40;;;14.60;99.90;;;;;;4984545;28;20034;-72
2023/03/23 11:14:45;;;;;;;1.85;0.45;;;14.60;99.90;;;;;;4967663;28;20110;-70
2023/03/23 11:17:41;;;;;;;3.85;0.73;;;14.50;99.90;;;;;;4984729;28;20038;-70
2023/03/23 11:20:12;;;;;;;0.57;0.32;;;14.50;99.90;;;;;;4970853;28;20104;-68
2023/03/23 11:22:39;;;;;;;0.50;0.25;;;14.60;99.90;;;;;;4974132;28;20082;-69
2023/03/23 11:25:06;;;;;;;0.52;0.35;;;14.40;99.90;;;;;;4969118;28;20398;-68
2023/03/23 11:27:32;;;;;;;0.68;0.30;;;14.50;99.90;;;;;;4959400;28;20398;-69
2023/03/23 11:30:27;;;;;;;3.33;0.47;;;14.50;99.90;;;;;;4968632;28;20038;-70
2023/03/23 11:32:56;;;;;;;1.20;0.50;;;14.50;99.90;;;;;;4974063;28;20045;-69
2023/03/23 11:35:27;;;;;;;1.30;0.60;;;14.40;99.90;;;;;;4989019;28;20035;-70
2023/03/23 11:37:58;;;;;;;0.22;0.22;;;14.50;99.90;;;;;;4956873;28;20108;-70
2023/03/23 11:40:31;;;;;;;0.80;0.30;;;14.50;99.90;;;;;;4972399;28;20072;-70
2023/03/23 11:43:24;;;;;;;0.38;0.25;;;14.50;99.90;;;;;;4973961;28;20454;-70
2023/03/23 11:46:25;;;;;;;0.73;0.28;;;14.50;99.90;;;;;;4940083;28;20126;-68
2023/03/23 11:49:00;;;;;;;0.85;0.28;;;14.60;99.90;;;;;;4980027;28;20470;-68
2023/03/23 11:51:55;;;;;;;5.88;0.50;;;14.60;99.90;;;;;;4953617;28;20052;-69
2023/03/23 11:54:37;;;;;;;0.50;0.28;;;14.60;99.90;;;;;;4967241;28;20625;-70
2023/03/23 11:57:15;;;;;;;0.35;0.20;;;14.60;99.90;;;;;;4983898;28;20038;-69
2023/03/23 11:59:41;;;;;;;0.47;0.35;;;14.50;99.90;;;;;;4984350;28;20034;-69
2023/03/23 12:02:56;;;;;;;0.35;0.32;;;14.40;99.90;;;;;;4983999;28;20041;-69
2023/03/23 12:05:50;;;;;;;1.20;0.47;;;14.40;99.90;;;;;;4988278;28;20042;-69
2023/03/23 12:09:12;;;;;;;5.40;0.60;;;14.50;99.90;;;;;;4976370;28;20082;-69
2023/03/23 12:12:15;;;;;;;0.45;0.30;;;14.60;99.90;;;;;;4954824;28;20063;-70
2023/03/23 12:15:03;;;;;;;0.52;0.30;;;14.60;99.90;;;;;;4975990;28;20065;-69
2023/03/23 12:18:06;;;;;;;0.52;0.30;;;14.70;99.90;;;;;;4954918;28;20027;-73
2023/03/23 12:20:59;;;;;;;3.63;0.43;;;14.80;99.90;;;;;;4972375;28;20054;-70
2023/03/23 12:23:40;;;;;;;1.52;0.50;;;14.90;99.90;;;;;;4974827;28;20069;-60
2023/03/23 12:26:29;;;;;;;0.40;0.30;;;14.90;99.90;;;;;;4973610;28;20458;-68
2023/03/23 12:29:35;;;;;;;2.17;1.00;;;14.90;99.90;;;;;;4971987;28;20057;-68
2023/03/23 12:32:26;;;;;;;0.70;0.30;;;14.80;99.90;;;;;;4973541;28;20037;-67
2023/03/23 12:35:21;;;;;;;3.10;0.25;;;14.90;99.90;;;;;;4975210;28;20108;-68
2023/03/23 12:38:02;;;;;;;0.47;0.38;;;14.90;99.90;;;;;;4983480;28;20049;-68
2023/03/23 12:41:10;;;;;;;1.08;0.88;;;14.90;99.90;;;;;;4984033;28;20034;-68
2023/03/23 12:44:14;;;;;;;0.82;0.45;;;14.90;99.90;;;;;;4988599;28;20042;-69
2023/03/23 12:47:20;;;;;;;1.20;0.70;;;14.90;99.90;;;;;;4931632;29;20059;-68
2023/03/23 12:49:54;;;;;;;0.95;0.40;;;14.90;99.90;;;;;;4984245;28;20034;-69
2023/03/23 12:52:32;;;;;;;0.25;0.10;;;14.90;99.90;;;;;;4964076;28;20030;-68
2023/03/23 12:55:23;;;;;;;1.17;0.60;;;14.90;99.90;;;;;;4960353;28;20037;-68
2023/03/23 12:58:12;;;;;;;2.60;0.50;;;14.90;99.90;;;;;;4983169;28;20030;-68
2023/03/23 13:01:21;;;;;;;3.88;0.82;;;15.00;99.90;;;;;;4958882;28;20045;-67
2023/03/23 13:04:10;;;;;;;6.35;0.60;;;15.20;99.90;;;;;;4987971;28;20030;-68
2023/03/23 13:06:41;;;;;;;1.75;0.73;;;15.40;99.90;;;;;;4965391;28;20035;-67
2023/03/23 13:09:36;;;;;;;7.05;1.25;;;15.30;99.90;;;;;;4986278;28;20030;-67
2023/03/23 13:12:04;;;;;;;1.92;1.15;;;15.40;99.90;;;;;;4977302;28;20035;-68
2023/03/23 13:14:32;;;;;;;5.68;0.80;;;15.30;99.90;;;;;;4948009;28;20039;-68
2023/03/23 13:17:51;;;;;;;1.08;0.52;;;15.20;99.90;;;;;;4982946;28;20125;-68
2023/03/23 13:20:43;;;;;;;8.40;0.88;;;15.10;99.90;;;;;;4982194;28;20112;-68
2023/03/23 13:23:17;;;;;;;2.08;0.68;;;15.10;99.90;;;;;;4979264;28;20062;-68